Time;durP1;ratioP1;P1;durP2;ratioP2;P2;SDS_P1;SDS_P2;PMS_P1;PMS_P2;Temp;Humidity;BMP_temperature;BMP_pressure;BME280_temperature;BME280_humidity;BME280_pressure;Samples;Min_cycle;Max_cycle;Signal;HPM_P1;HPM_P2
2022/12/26 00:00:11;;;;;;;121.28;20.92;;;8.10;99.90;;;;;;5012943;28;20050;-62
2022/12/26 00:02:37;;;;;;;103.82;20.58;;;8.10;99.90;;;;;;4993395;28;20058;-62
2022/12/26 00:05:03;;;;;;;135.88;20.05;;;8.10;99.90;;;;;;4984600;28;20368;-62
2022/12/26 00:07:29;;;;;;;212.20;23.80;;;8.10;99.90;;;;;;5017683;28;20066;-62
2022/12/26 00:09:55;;;;;;;160.02;21.02;;;8.10;99.90;;;;;;5016166;28;20075;-61
2022/12/26 00:12:21;;;;;;;148.48;23.27;;;8.10;99.90;;;;;;5008108;28;20069;-62
2022/12/26 00:14:46;;;;;;;147.95;21.70;;;8.10;99.90;;;;;;5012352;28;20423;-62
2022/12/26 00:17:12;;;;;;;152.60;21.27;;;8.10;99.90;;;;;;4992867;28;20052;-62
2022/12/26 00:19:38;;;;;;;160.85;22.10;;;8.10;99.90;;;;;;5010929;28;20057;-62
2022/12/26 00:22:04;;;;;;;143.40;22.33;;;8.10;99.90;;;;;;5023979;28;20309;-62
2022/12/26 00:24:29;;;;;;;201.90;23.35;;;8.10;99.90;;;;;;4981131;28;20487;-62
2022/12/26 00:26:55;;;;;;;175.55;23.27;;;8.10;99.90;;;;;;5025129;28;20135;-62
2022/12/26 00:29:21;;;;;;;169.35;23.20;;;8.10;99.90;;;;;;5024398;28;20480;-62
2022/12/26 00:31:48;;;;;;;280.27;24.98;;;8.10;99.90;;;;;;5022655;28;20063;-62
2022/12/26 00:34:14;;;;;;;249.27;24.08;;;8.10;99.90;;;;;;5023571;28;20045;-62
2022/12/26 00:36:40;;;;;;;192.40;20.65;;;8.10;99.90;;;;;;5024572;28;20053;-62
2022/12/26 00:39:06;;;;;;;322.95;26.42;;;8.10;99.90;;;;;;5023581;28;20048;-62
2022/12/26 00:41:32;;;;;;;273.27;24.17;;;8.00;99.90;;;;;;5024337;28;20450;-62
2022/12/26 00:43:58;;;;;;;204.07;23.80;;;8.00;99.90;;;;;;5024055;28;20037;-61
2022/12/26 00:46:25;;;;;;;185.20;22.35;;;8.00;99.90;;;;;;5006575;28;20540;-62
2022/12/26 00:48:52;;;;;;;156.10;21.27;;;8.00;99.90;;;;;;5024404;28;20056;-62
2022/12/26 00:51:18;;;;;;;160.52;21.80;;;8.10;99.90;;;;;;5024188;28;20041;-62
2022/12/26 00:53:44;;;;;;;154.18;20.98;;;8.00;99.90;;;;;;5024174;28;20104;-62
2022/12/26 00:56:10;;;;;;;148.35;21.75;;;8.10;99.90;;;;;;5023854;28;20111;-62
2022/12/26 00:58:36;;;;;;;105.68;19.80;;;8.00;99.90;;;;;;5023745;28;20045;-61
2022/12/26 01:01:15;;;;;;;99.50;19.73;;;8.10;99.90;;;;;;5021952;28;20088;-62
2022/12/26 01:03:42;;;;;;;71.78;16.77;;;8.10;99.90;;;;;;5024082;28;20456;-62
2022/12/26 01:06:08;;;;;;;84.90;18.30;;;8.10;99.90;;;;;;5006263;28;20045;-62
2022/12/26 01:08:34;;;;;;;74.57;17.88;;;8.10;99.90;;;;;;5005650;28;20542;-62
2022/12/26 01:11:08;;;;;;;74.18;16.98;;;8.10;99.90;;;;;;5024559;28;20688;-62
2022/12/26 01:13:35;;;;;;;70.15;17.23;;;8.10;99.90;;;;;;5005736;28;20057;-62
2022/12/26 01:16:01;;;;;;;53.67;15.05;;;8.10;99.90;;;;;;5023807;28;20057;-61
2022/12/26 01:18:27;;;;;;;49.85;13.50;;;8.10;99.90;;;;;;5023990;28;20044;-62
2022/12/26 01:20:58;;;;;;;66.68;15.95;;;8.20;99.90;;;;;;5023488;28;20060;-62
2022/12/26 01:23:24;;;;;;;63.60;16.27;;;8.10;99.90;;;;;;5026212;28;20045;-62
2022/12/26 01:25:50;;;;;;;55.53;15.50;;;8.10;99.90;;;;;;5026915;28;20511;-62
2022/12/26 01:28:16;;;;;;;49.35;13.38;;;8.20;99.90;;;;;;5027955;28;20112;-62
2022/12/26 01:30:41;;;;;;;60.95;15.82;;;8.20;99.90;;;;;;5026814;28;20049;-62
2022/12/26 01:33:08;;;;;;;41.17;12.73;;;8.20;99.90;;;;;;5006343;28;20049;-62
2022/12/26 01:35:33;;;;;;;46.58;12.68;;;8.20;99.90;;;;;;5026458;28;20090;-62
2022/12/26 01:37:59;;;;;;;61.95;15.48;;;8.20;99.90;;;;;;5027787;28;20072;-62
2022/12/26 01:40:25;;;;;;;56.58;15.48;;;8.20;99.90;;;;;;5027724;28;20076;-62
2022/12/26 01:42:51;;;;;;;53.35;15.10;;;8.20;99.90;;;;;;4993154;28;20080;-62
2022/12/26 01:45:28;;;;;;;61.53;16.10;;;8.20;99.90;;;;;;5028193;28;20052;-62
2022/12/26 01:48:04;;;;;;;62.80;16.05;;;8.20;99.90;;;;;;5025931;28;20589;-62
2022/12/26 01:50:52;;;;;;;55.95;14.50;;;8.20;99.90;;;;;;5027287;28;20088;-61
2022/12/26 01:53:27;;;;;;;62.88;16.65;;;8.20;99.90;;;;;;5027310;28;20060;-61
2022/12/26 01:56:08;;;;;;;63.13;17.05;;;8.20;99.90;;;;;;5013819;28;20568;-61
2022/12/26 01:58:42;;;;;;;61.63;16.10;;;8.20;99.90;;;;;;5027324;28;20499;-61
2022/12/26 02:01:09;;;;;;;55.97;15.35;;;8.20;99.90;;;;;;4993436;28;20545;-62
2022/12/26 02:06:24;;;;;;;58.60;15.20;;;8.20;99.90;;;;;;5027430;28;20037;-62
2022/12/26 02:08:50;;;;;;;56.92;15.40;;;8.20;99.90;;;;;;5025994;28;20372;-61
2022/12/26 02:11:26;;;;;;;47.03;14.13;;;8.20;99.90;;;;;;5027606;28;20037;-62
2022/12/26 02:13:52;;;;;;;47.78;14.52;;;8.20;99.90;;;;;;5025860;28;20093;-61
2022/12/26 02:16:19;;;;;;;56.35;16.38;;;8.20;99.90;;;;;;5026864;28;20054;-61
2022/12/26 02:18:45;;;;;;;65.20;17.80;;;8.20;99.90;;;;;;5025736;28;20037;-61
2022/12/26 02:21:31;;;;;;;49.97;14.88;;;8.20;99.90;;;;;;5026987;28;20103;-61
2022/12/26 02:24:01;;;;;;;63.75;16.23;;;8.20;99.90;;;;;;4969600;28;20069;-62
2022/12/26 02:26:42;;;;;;;25.98;9.90;;;8.20;99.90;;;;;;5025504;28;20160;-62
2022/12/26 02:29:26;;;;;;;43.65;13.15;;;8.20;99.90;;;;;;5008922;28;20116;-61
2022/12/26 02:32:35;;;;;;;44.22;14.02;;;8.20;99.90;;;;;;5015025;28;20088;-61
2022/12/26 02:35:38;;;;;;;38.78;12.68;;;8.20;99.90;;;;;;5011523;28;20487;-62
2022/12/26 02:38:26;;;;;;;38.80;10.63;;;8.20;99.90;;;;;;5026399;28;20041;-61
2022/12/26 02:41:16;;;;;;;37.28;11.00;;;8.20;99.90;;;;;;5026403;28;20400;-62
2022/12/26 02:43:54;;;;;;;32.38;10.13;;;8.20;99.90;;;;;;5017847;28;20426;-61
2022/12/26 02:49:27;;;;;;;42.40;11.27;;;8.20;99.90;;;;;;5026041;28;20203;-62
2022/12/26 03:13:10;;;;;;;35.08;11.48;;;8.20;99.90;;;;;;5025388;28;20498;-62
2022/12/26 03:18:28;;;;;;;29.10;10.15;;;8.20;99.90;;;;;;5024811;28;20046;-62
2022/12/26 03:20:55;;;;;;;36.13;10.48;;;8.20;99.90;;;;;;5007692;28;20521;-62
2022/12/26 03:23:21;;;;;;;29.65;10.45;;;8.20;99.90;;;;;;5025218;28;20107;-61
2022/12/26 03:28:49;;;;;;;33.70;9.75;;;8.20;99.90;;;;;;5016812;28;20491;-62
2022/12/26 03:31:15;;;;;;;32.10;9.95;;;8.20;99.90;;;;;;4990785;28;20040;-61
2022/12/26 03:36:54;;;;;;;37.03;10.43;;;8.20;99.90;;;;;;5025254;28;20506;-62
2022/12/26 04:20:42;;;;;;;34.63;12.20;;;8.40;99.90;;;;;;5025642;28;20071;-62
2022/12/26 04:46:16;;;;;;;33.63;12.50;;;8.40;99.90;;;;;;5020585;28;20107;-61
2022/12/26 04:51:30;;;;;;;48.20;16.23;;;8.40;99.90;;;;;;5024402;28;20050;-62
2022/12/26 04:53:57;;;;;;;49.03;16.73;;;8.40;99.90;;;;;;5023785;28;20380;-61
2022/12/26 04:56:23;;;;;;;52.75;17.67;;;8.40;99.90;;;;;;5024322;28;20049;-62
2022/12/26 04:58:49;;;;;;;45.63;17.27;;;8.40;99.90;;;;;;5028041;28;20057;-62
2022/12/26 05:09:35;;;;;;;51.60;17.30;;;8.50;99.90;;;;;;5017209;28;20049;-61
2022/12/26 05:12:06;;;;;;;53.20;18.88;;;8.50;99.90;;;;;;4991035;28;20048;-62
2022/12/26 05:14:34;;;;;;;51.55;18.63;;;8.50;99.90;;;;;;5026575;28;20484;-62
2022/12/26 05:30:53;;;;;;;46.60;17.13;;;8.60;99.90;;;;;;5027806;28;20276;-62
2022/12/26 05:36:04;;;;;;;53.35;19.60;;;8.60;99.90;;;;;;5027102;28;20045;-61
2022/12/26 05:38:30;;;;;;;28.15;10.65;;;8.60;99.90;;;;;;5028106;28;20041;-61
2022/12/26 05:40:55;;;;;;;53.13;21.45;;;8.60;99.90;;;;;;5008930;28;20045;-61
2022/12/26 05:43:21;;;;;;;23.40;11.38;;;8.60;99.90;;;;;;5027640;28;20037;-61
2022/12/26 05:45:48;;;;;;;44.47;19.38;;;8.60;99.90;;;;;;5009030;28;20042;-61
2022/12/26 05:48:13;;;;;;;32.50;15.65;;;8.60;99.90;;;;;;5026779;28;20484;-61
2022/12/26 05:50:39;;;;;;;24.88;12.88;;;8.60;99.90;;;;;;5027706;28;20049;-61
2022/12/26 05:53:05;;;;;;;38.00;17.98;;;8.60;99.90;;;;;;5026989;28;20037;-62
2022/12/26 05:55:31;;;;;;;13.80;7.50;;;8.60;99.90;;;;;;5009419;28;20131;-61
2022/12/26 05:57:59;;;;;;;34.50;17.13;;;8.60;99.90;;;;;;5026852;28;20554;-61
2022/12/26 06:00:25;;;;;;;38.30;18.30;;;8.60;99.90;;;;;;5026549;28;20582;-62
2022/12/26 06:02:51;;;;;;;34.65;18.27;;;8.60;99.90;;;;;;5026200;28;20417;-61
2022/12/26 06:05:16;;;;;;;32.08;16.25;;;8.60;99.90;;;;;;5026904;28;20045;-61
2022/12/26 06:07:42;;;;;;;29.33;15.13;;;8.50;99.90;;;;;;5027342;28;20125;-62
2022/12/26 06:10:09;;;;;;;41.10;19.08;;;8.50;99.90;;;;;;5025988;28;20045;-62
2022/12/26 06:12:35;;;;;;;34.92;18.13;;;8.50;99.90;;;;;;5026719;28;20053;-61
2022/12/26 06:15:02;;;;;;;29.30;17.23;;;8.50;99.90;;;;;;5008824;28;20120;-61
2022/12/26 06:17:28;;;;;;;20.27;12.00;;;8.50;99.90;;;;;;5026987;28;20046;-61
2022/12/26 06:19:53;;;;;;;30.08;15.52;;;8.40;99.90;;;;;;5026471;28;20423;-61
2022/12/26 06:22:19;;;;;;;29.17;16.70;;;8.50;99.90;;;;;;5026358;28;20403;-61
2022/12/26 06:24:45;;;;;;;26.88;15.20;;;8.40;99.90;;;;;;5026253;28;20075;-62
2022/12/26 06:27:11;;;;;;;30.38;16.42;;;8.40;99.90;;;;;;5008985;28;20111;-61
2022/12/26 06:29:36;;;;;;;28.88;14.95;;;8.40;99.90;;;;;;5026427;28;20103;-61
2022/12/26 06:32:03;;;;;;;27.52;16.08;;;8.40;99.90;;;;;;5026036;28;20041;-61
2022/12/26 06:34:29;;;;;;;26.10;14.88;;;8.40;99.90;;;;;;5026771;28;20397;-61
2022/12/26 06:36:55;;;;;;;22.50;12.27;;;8.40;99.90;;;;;;5025758;28;20045;-61
2022/12/26 06:39:21;;;;;;;32.78;17.35;;;8.40;99.90;;;;;;5026626;28;20037;-61
2022/12/26 06:41:47;;;;;;;28.40;16.30;;;8.40;99.90;;;;;;5025982;28;20462;-61
2022/12/26 06:44:13;;;;;;;28.17;14.10;;;8.40;99.90;;;;;;5026439;28;20049;-61
2022/12/26 06:46:39;;;;;;;25.52;15.05;;;8.40;99.90;;;;;;5025704;28;20057;-61
2022/12/26 06:49:07;;;;;;;23.42;14.20;;;8.40;99.90;;;;;;5026089;28;20123;-62
2022/12/26 06:51:36;;;;;;;36.05;15.52;;;8.40;99.90;;;;;;5008747;28;20140;-61
2022/12/26 06:54:03;;;;;;;25.55;14.00;;;8.40;99.90;;;;;;5024974;28;20060;-61
2022/12/26 06:56:30;;;;;;;28.58;16.25;;;8.40;99.90;;;;;;5025698;28;20041;-61
2022/12/26 06:59:01;;;;;;;24.00;15.00;;;8.50;99.90;;;;;;5025585;28;20496;-61
2022/12/26 07:01:29;;;;;;;16.45;11.30;;;8.50;99.90;;;;;;5007816;28;20606;-62
2022/12/26 07:03:55;;;;;;;21.30;11.93;;;8.50;99.90;;;;;;5025998;28;20049;-61
2022/12/26 07:06:24;;;;;;;20.02;11.35;;;8.50;99.90;;;;;;5025299;28;20632;-61
2022/12/26 07:08:56;;;;;;;16.05;9.77;;;8.50;99.90;;;;;;5025997;28;20033;-61
2022/12/26 07:11:24;;;;;;;18.33;11.50;;;8.50;99.90;;;;;;5025242;28;20069;-61
2022/12/26 07:13:52;;;;;;;30.10;15.20;;;8.50;99.90;;;;;;5025867;28;20143;-62
2022/12/26 07:16:18;;;;;;;25.73;13.95;;;8.50;99.90;;;;;;5025493;28;20529;-61
2022/12/26 07:18:44;;;;;;;17.40;9.32;;;8.50;99.90;;;;;;5007775;28;20109;-61
2022/12/26 07:21:12;;;;;;;18.25;11.90;;;8.50;99.90;;;;;;5024707;28;20033;-61
2022/12/26 07:23:38;;;;;;;23.25;13.13;;;8.50;99.90;;;;;;5025240;28;20423;-61
2022/12/26 07:26:04;;;;;;;19.75;12.38;;;8.50;99.90;;;;;;5025554;28;20147;-61
2022/12/26 07:28:30;;;;;;;20.23;10.38;;;8.50;99.90;;;;;;5024991;28;20094;-61
2022/12/26 07:30:58;;;;;;;22.63;13.10;;;8.50;99.90;;;;;;5008216;28;20108;-61
2022/12/26 07:33:26;;;;;;;26.30;12.20;;;8.50;99.90;;;;;;5024611;28;20503;-61
2022/12/26 07:35:52;;;;;;;14.65;8.82;;;8.60;99.90;;;;;;5025478;28;20052;-62
2022/12/26 07:38:18;;;;;;;23.60;13.88;;;8.60;99.90;;;;;;5007426;28;20053;-61
2022/12/26 07:40:44;;;;;;;23.15;10.00;;;8.60;99.90;;;;;;5025154;28;20089;-61
2022/12/26 07:43:09;;;;;;;27.63;13.93;;;8.60;99.90;;;;;;5025613;28;20468;-61
2022/12/26 07:45:37;;;;;;;27.77;14.70;;;8.60;99.90;;;;;;5024733;28;20540;-61
2022/12/26 07:48:02;;;;;;;7.78;5.93;;;8.70;99.90;;;;;;5025410;28;20061;-61
2022/12/26 07:50:28;;;;;;;19.10;10.82;;;8.60;99.90;;;;;;5006216;28;20041;-61
2022/12/26 07:52:54;;;;;;;10.95;6.47;;;8.70;99.90;;;;;;5025398;28;20045;-61
2022/12/26 07:55:20;;;;;;;23.30;9.77;;;8.70;99.90;;;;;;5024684;28;20049;-61
2022/12/26 07:57:50;;;;;;;10.98;7.30;;;8.70;99.90;;;;;;5006773;28;20089;-61
2022/12/26 08:00:17;;;;;;;14.18;7.78;;;8.70;99.90;;;;;;5025162;28;20131;-61
2022/12/26 08:02:43;;;;;;;16.60;9.80;;;8.70;99.90;;;;;;5023956;28;20057;-61
2022/12/26 08:05:10;;;;;;;23.10;10.60;;;8.70;99.90;;;;;;5024955;28;20050;-62
2022/12/26 08:07:36;;;;;;;15.88;8.25;;;8.80;99.90;;;;;;5023556;28;20521;-61
2022/12/26 08:10:02;;;;;;;23.83;9.18;;;8.80;99.90;;;;;;4997944;28;20049;-61
2022/12/26 08:12:30;;;;;;;25.00;10.18;;;8.80;99.90;;;;;;5024167;28;20499;-61
2022/12/26 08:14:56;;;;;;;18.00;9.68;;;8.80;99.90;;;;;;4990714;28;20056;-61
2022/12/26 08:17:22;;;;;;;18.55;8.75;;;8.80;99.90;;;;;;5024471;28;20033;-61
2022/12/26 08:19:47;;;;;;;12.75;8.70;;;8.80;99.90;;;;;;5023684;28;20069;-61
2022/12/26 08:22:13;;;;;;;12.50;7.32;;;8.80;99.90;;;;;;5025355;28;20131;-61
2022/12/26 08:24:40;;;;;;;7.53;4.05;;;8.90;99.90;;;;;;5023815;28;20049;-61
2022/12/26 08:27:05;;;;;;;17.00;7.15;;;8.90;99.90;;;;;;5025066;28;20052;-61
2022/12/26 08:29:31;;;;;;;15.52;8.02;;;8.90;99.90;;;;;;5024414;28;20046;-62
2022/12/26 08:31:57;;;;;;;10.70;5.78;;;8.90;99.90;;;;;;5025419;28;20105;-61
2022/12/26 08:34:23;;;;;;;10.75;5.78;;;8.90;99.90;;;;;;5028370;28;20120;-61
2022/12/26 08:36:52;;;;;;;12.25;7.15;;;8.90;99.90;;;;;;5028178;28;20484;-61
2022/12/26 08:39:17;;;;;;;14.65;7.13;;;8.90;99.90;;;;;;5011179;28;20064;-61
2022/12/26 08:41:43;;;;;;;8.10;4.82;;;8.90;99.90;;;;;;5009856;28;20045;-61
2022/12/26 08:44:11;;;;;;;8.38;5.25;;;8.90;99.90;;;;;;5011328;28;20049;-61
2022/12/26 08:46:37;;;;;;;13.27;5.22;;;9.00;99.90;;;;;;4993678;28;20046;-62
2022/12/26 08:49:03;;;;;;;7.45;4.90;;;9.00;99.90;;;;;;5010574;28;20052;-61
2022/12/26 08:51:29;;;;;;;9.20;5.10;;;9.00;99.90;;;;;;5003699;28;20130;-61
2022/12/26 08:53:55;;;;;;;8.73;5.00;;;9.00;99.90;;;;;;5009910;28;20045;-61
2022/12/26 08:56:23;;;;;;;18.40;6.13;;;9.00;99.90;;;;;;4990312;28;20041;-61
2022/12/26 08:58:49;;;;;;;16.88;6.10;;;9.10;99.90;;;;;;4977326;28;20046;-61
2022/12/26 09:01:22;;;;;;;4.53;3.97;;;9.10;99.90;;;;;;5014398;28;20091;-61
2022/12/26 09:03:52;;;;;;;14.32;6.78;;;9.10;99.90;;;;;;5009724;28;20045;-61
2022/12/26 09:06:18;;;;;;;10.00;4.38;;;9.10;99.90;;;;;;5012646;28;20395;-61
2022/12/26 09:08:45;;;;;;;9.23;6.38;;;9.10;99.90;;;;;;4990476;28;20103;-61
2022/12/26 09:11:13;;;;;;;7.13;4.35;;;9.10;99.90;;;;;;5010779;28;20045;-61
2022/12/26 09:13:41;;;;;;;8.82;5.32;;;9.10;99.90;;;;;;5008995;28;20046;-61
2022/12/26 09:16:31;;;;;;;13.02;6.50;;;9.10;99.90;;;;;;4993971;28;20527;-61
2022/12/26 09:19:00;;;;;;;8.23;5.00;;;9.10;99.90;;;;;;4998087;28;20128;-61
2022/12/26 09:21:27;;;;;;;4.28;3.67;;;9.10;99.90;;;;;;5021170;28;20046;-61
2022/12/26 09:23:58;;;;;;;14.23;6.97;;;9.10;99.90;;;;;;5008729;28;20034;-61
2022/12/26 09:26:24;;;;;;;8.65;5.05;;;9.10;99.90;;;;;;5014967;28;20665;-61
2022/12/26 09:28:50;;;;;;;7.78;3.60;;;9.10;99.90;;;;;;5027528;28;20415;-61
2022/12/26 09:31:19;;;;;;;10.55;6.10;;;9.00;99.90;;;;;;5010189;28;20049;-61
2022/12/26 09:33:46;;;;;;;11.75;3.97;;;9.00;99.90;;;;;;5026707;28;20049;-61
2022/12/26 09:36:14;;;;;;;13.52;6.78;;;9.00;99.90;;;;;;5010280;28;20057;-61
2022/12/26 09:38:41;;;;;;;4.07;2.75;;;9.00;99.90;;;;;;5026086;28;20438;-61
2022/12/26 09:41:25;;;;;;;7.25;4.10;;;9.00;99.90;;;;;;5027360;28;20045;-61
2022/12/26 09:44:04;;;;;;;16.38;6.03;;;9.00;99.90;;;;;;5008565;28;20099;-61
2022/12/26 09:46:32;;;;;;;6.47;4.03;;;9.00;99.90;;;;;;5027027;28;20081;-61
2022/12/26 09:49:14;;;;;;;10.70;3.70;;;9.00;99.90;;;;;;5026812;28;20119;-61
2022/12/26 09:51:43;;;;;;;13.45;5.60;;;9.00;99.90;;;;;;4993116;28;20508;-62
2022/12/26 09:54:18;;;;;;;7.25;4.20;;;9.00;99.90;;;;;;5019342;28;20050;-62
2022/12/26 09:56:45;;;;;;;13.95;5.53;;;9.00;99.90;;;;;;5011667;28;20038;-62
2022/12/26 09:59:20;;;;;;;8.80;3.30;;;9.00;99.90;;;;;;5009285;28;20052;-61
2022/12/26 10:01:47;;;;;;;10.85;4.50;;;9.00;99.90;;;;;;4996709;28;20073;-62
2022/12/26 10:04:25;;;;;;;6.10;2.15;;;9.10;99.90;;;;;;5021750;28;20050;-61
2022/12/26 10:07:16;;;;;;;4.13;2.30;;;9.00;99.90;;;;;;5010127;28;20068;-62
2022/12/26 10:10:03;;;;;;;11.68;2.97;;;9.00;99.90;;;;;;5000374;28;20470;-62
2022/12/26 10:12:59;;;;;;;11.80;3.75;;;9.00;99.90;;;;;;5013036;28;20508;-61
2022/12/26 10:15:57;;;;;;;3.80;1.45;;;9.00;99.90;;;;;;5004905;28;20048;-61
2022/12/26 10:19:04;;;;;;;2.65;1.48;;;9.10;99.90;;;;;;5018078;28;20045;-61
2022/12/26 10:22:08;;;;;;;2.75;1.00;;;9.10;99.90;;;;;;4984917;28;20092;-61
2022/12/26 10:24:37;;;;;;;5.40;1.23;;;8.80;99.90;;;;;;5019144;28;20121;-61
2022/12/26 10:27:09;;;;;;;0.97;0.77;;;8.70;99.90;;;;;;5014736;28;20050;-61
2022/12/26 10:29:44;;;;;;;3.75;0.50;;;8.50;99.90;;;;;;5008674;28;20374;-62
2022/12/26 10:32:15;;;;;;;1.92;1.05;;;8.40;99.90;;;;;;5007622;28;20046;-61
2022/12/26 10:34:46;;;;;;;2.60;0.47;;;8.40;99.90;;;;;;4993065;28;20044;-61
2022/12/26 10:37:36;;;;;;;1.45;0.73;;;8.30;99.90;;;;;;5008166;28;20046;-62
2022/12/26 10:40:18;;;;;;;1.03;0.73;;;8.20;99.90;;;;;;5021870;28;20042;-61
2022/12/26 10:42:55;;;;;;;1.88;0.40;;;8.20;99.90;;;;;;5012942;28;20065;-61
2022/12/26 10:45:45;;;;;;;8.27;1.25;;;8.10;99.90;;;;;;5016840;28;20033;-61
2022/12/26 10:48:15;;;;;;;11.77;1.50;;;8.10;99.90;;;;;;4986924;28;20097;-62
2022/12/26 10:50:46;;;;;;;1.57;0.70;;;8.10;99.90;;;;;;5025495;28;20049;-61
2022/12/26 10:53:14;;;;;;;6.80;0.77;;;8.00;99.90;;;;;;5012930;28;20042;-61
2022/12/26 10:55:40;;;;;;;1.20;0.47;;;8.00;99.90;;;;;;5015816;28;20494;-61
2022/12/26 10:58:39;;;;;;;3.80;1.20;;;8.00;99.90;;;;;;5000572;28;20052;-61
2022/12/26 11:01:27;;;;;;;10.63;1.00;;;7.90;99.90;;;;;;4966662;28;20057;-61
2022/12/26 11:03:58;;;;;;;14.07;1.60;;;8.00;99.90;;;;;;5021007;28;20045;-61
2022/12/26 11:06:29;;;;;;;17.05;1.80;;;7.90;99.90;;;;;;5014494;28;20046;-61
2022/12/26 11:08:57;;;;;;;15.18;1.42;;;7.90;99.90;;;;;;4990131;28;21100;-61
2022/12/26 11:11:46;;;;;;;12.93;1.05;;;7.90;99.90;;;;;;5011705;28;20037;-61
2022/12/26 11:14:29;;;;;;;17.98;2.28;;;7.80;99.90;;;;;;4998806;28;20054;-62
2022/12/26 11:17:03;;;;;;;15.02;2.45;;;7.70;99.90;;;;;;5006645;28;20044;-61
2022/12/26 11:19:38;;;;;;;18.40;3.38;;;7.70;99.90;;;;;;5008171;28;20077;-61
2022/12/26 11:22:22;;;;;;;17.77;2.72;;;7.60;99.90;;;;;;5013147;28;20059;-61
2022/12/26 11:25:07;;;;;;;13.85;3.20;;;7.50;99.90;;;;;;5013250;28;20050;-61
2022/12/26 11:27:33;;;;;;;13.80;2.90;;;7.50;99.90;;;;;;5008445;28;20570;-61
2022/12/26 11:30:22;;;;;;;18.58;3.08;;;7.50;99.90;;;;;;5008974;28;20038;-61
2022/12/26 11:33:23;;;;;;;8.33;2.13;;;7.40;99.90;;;;;;5015034;28;20077;-61
2022/12/26 11:35:54;;;;;;;14.20;2.33;;;7.40;99.90;;;;;;4980730;28;20061;-62
2022/12/26 11:38:33;;;;;;;12.93;2.67;;;7.40;99.90;;;;;;5001968;28;20034;-61
2022/12/26 11:43:50;;;;;;;12.48;2.10;;;7.40;99.90;;;;;;5018044;28;20049;-61
2022/12/26 11:46:16;;;;;;;12.57;2.05;;;7.50;99.90;;;;;;5017801;28;20041;-61
2022/12/26 11:48:48;;;;;;;18.58;3.20;;;7.50;99.90;;;;;;5024359;28;20045;-61
2022/12/26 11:51:14;;;;;;;10.55;2.22;;;7.50;99.90;;;;;;5024238;28;20395;-61
2022/12/26 11:53:40;;;;;;;11.23;1.77;;;7.50;99.90;;;;;;5007177;28;20057;-61
2022/12/26 11:56:07;;;;;;;13.18;2.03;;;7.50;99.90;;;;;;5005671;28;20060;-61
2022/12/26 11:58:34;;;;;;;13.52;2.42;;;7.50;99.90;;;;;;5025462;28;20046;-61
2022/12/26 12:01:00;;;;;;;10.30;1.67;;;7.50;99.90;;;;;;5024315;28;20037;-61
2022/12/26 12:03:45;;;;;;;9.82;1.95;;;7.40;99.90;;;;;;5006210;28;20049;-61
2022/12/26 12:06:36;;;;;;;15.25;2.10;;;7.30;99.90;;;;;;5006345;28;20062;-61
2022/12/26 12:09:04;;;;;;;6.20;1.30;;;7.30;99.90;;;;;;5019455;28;20056;-61
2022/12/26 12:11:49;;;;;;;8.73;1.65;;;7.30;99.90;;;;;;5024515;28;20084;-61
2022/12/26 12:14:17;;;;;;;13.25;3.30;;;7.30;99.90;;;;;;5023224;28;20081;-61
2022/12/26 12:17:13;;;;;;;9.57;1.95;;;7.30;99.90;;;;;;5024233;28;20225;-61
2022/12/26 12:19:50;;;;;;;15.77;2.25;;;7.20;99.90;;;;;;5024599;28;20059;-61
2022/12/26 12:22:22;;;;;;;14.68;2.80;;;7.10;99.90;;;;;;5023483;28;20056;-61
2022/12/26 12:25:17;;;;;;;15.43;3.42;;;7.10;99.90;;;;;;5024295;28;20053;-60
2022/12/26 12:27:59;;;;;;;9.48;1.80;;;7.10;99.90;;;;;;4980877;28;20396;-61
2022/12/26 12:30:33;;;;;;;16.67;2.78;;;7.10;99.90;;;;;;5023481;28;20494;-60
2022/12/26 12:33:32;;;;;;;11.93;2.10;;;7.20;99.90;;;;;;5010174;28;20574;-61
2022/12/26 12:36:28;;;;;;;15.60;2.75;;;7.10;99.90;;;;;;5010531;28;20049;-60
2022/12/26 12:39:05;;;;;;;11.88;2.42;;;7.20;99.90;;;;;;5018113;28;20077;-60
2022/12/26 12:42:05;;;;;;;16.27;2.80;;;7.20;99.90;;;;;;5015390;28;20041;-60
2022/12/26 12:44:53;;;;;;;22.60;3.67;;;7.20;99.90;;;;;;4994477;28;20042;-60
2022/12/26 12:47:47;;;;;;;7.65;2.28;;;7.20;99.90;;;;;;5011841;28;20503;-61
2022/12/26 12:50:19;;;;;;;18.17;2.72;;;7.10;99.90;;;;;;5021868;28;20080;-60
2022/12/26 12:53:03;;;;;;;15.63;3.35;;;7.20;99.90;;;;;;5014108;28;20049;-61
2022/12/26 12:55:50;;;;;;;13.63;3.17;;;7.10;99.90;;;;;;5016661;28;20427;-60
2022/12/26 12:58:50;;;;;;;15.05;3.10;;;7.10;99.90;;;;;;5022283;28;20514;-60
2022/12/26 13:01:41;;;;;;;14.43;2.85;;;7.00;99.90;;;;;;4988547;28;20414;-60
2022/12/26 13:04:23;;;;;;;14.98;3.38;;;6.90;99.90;;;;;;5023585;28;20407;-61
2022/12/26 13:07:01;;;;;;;17.90;3.53;;;6.90;99.90;;;;;;5007254;28;20511;-61
2022/12/26 13:09:35;;;;;;;16.08;2.55;;;6.80;99.90;;;;;;4996026;28;20058;-61
2022/12/26 13:12:07;;;;;;;13.90;2.58;;;6.80;99.90;;;;;;5010900;28;20113;-61
2022/12/26 13:15:03;;;;;;;14.23;2.65;;;6.90;99.90;;;;;;5005865;28;20057;-60
2022/12/26 13:17:47;;;;;;;17.33;3.40;;;6.90;99.90;;;;;;5020013;28;20069;-61
2022/12/26 13:20:23;;;;;;;14.73;2.70;;;6.90;99.90;;;;;;5022856;28;20053;-61
2022/12/26 13:25:45;;;;;;;9.93;1.80;;;6.90;99.90;;;;;;5022807;28;20049;-61
2022/12/26 13:28:17;;;;;;;17.88;2.10;;;6.90;99.90;;;;;;5014851;28;20614;-60
2022/12/26 13:30:43;;;;;;;14.77;2.25;;;7.00;99.90;;;;;;5018133;28;20568;-60
2022/12/26 13:33:14;;;;;;;20.13;2.90;;;7.10;99.90;;;;;;5013796;28;20046;-60
2022/12/26 13:35:55;;;;;;;23.63;3.53;;;7.10;99.90;;;;;;5014073;28;20104;-62
2022/12/26 13:38:22;;;;;;;21.65;3.25;;;7.10;99.90;;;;;;5010028;28;20046;-60
2022/12/26 13:44:22;;;;;;;13.23;2.55;;;6.80;99.90;;;;;;4997721;28;20050;-60
2022/12/26 13:46:49;;;;;;;15.82;2.65;;;6.80;99.90;;;;;;4988712;28;20060;-60
2022/12/26 13:49:37;;;;;;;10.02;1.52;;;6.80;99.90;;;;;;5024356;28;20064;-60
2022/12/26 13:52:10;;;;;;;21.52;2.92;;;6.80;99.90;;;;;;4998292;28;20472;-61
2022/12/26 13:54:57;;;;;;;14.43;1.95;;;6.80;99.90;;;;;;4986520;28;20061;-61
2022/12/26 13:57:38;;;;;;;12.43;1.33;;;6.80;99.90;;;;;;5001827;28;20052;-61
2022/12/26 14:00:12;;;;;;;16.40;2.55;;;6.70;99.90;;;;;;5021841;28;20131;-61
2022/12/26 14:03:05;;;;;;;15.20;1.98;;;6.80;99.90;;;;;;4999551;28;20060;-60
2022/12/26 14:05:52;;;;;;;11.93;1.90;;;6.70;99.90;;;;;;5013337;28;20079;-61
2022/12/26 14:08:39;;;;;;;14.77;2.97;;;6.70;99.90;;;;;;5009181;28;20129;-61
2022/12/26 14:11:32;;;;;;;10.38;1.33;;;6.70;99.90;;;;;;5003178;28;20046;-61
2022/12/26 14:14:26;;;;;;;21.15;3.08;;;6.70;99.90;;;;;;5013201;28;20033;-60
2022/12/26 14:17:22;;;;;;;12.93;1.08;;;6.70;99.90;;;;;;4989163;28;20507;-61
2022/12/26 14:20:15;;;;;;;18.77;2.15;;;6.70;99.90;;;;;;5019375;28;20053;-60
2022/12/26 14:23:05;;;;;;;28.77;2.28;;;6.60;99.90;;;;;;5009476;28;20129;-60
2022/12/26 14:26:06;;;;;;;15.80;2.45;;;6.60;99.90;;;;;;5015554;28;20092;-60
2022/12/26 14:28:44;;;;;;;12.40;1.75;;;6.50;99.90;;;;;;5010224;28;20504;-60
2022/12/26 14:31:43;;;;;;;14.82;2.22;;;6.40;99.90;;;;;;5013051;28;20034;-60
2022/12/26 14:34:11;;;;;;;9.43;1.63;;;6.40;99.90;;;;;;5019784;28;20507;-60
2022/12/26 14:36:58;;;;;;;9.80;2.15;;;6.30;99.90;;;;;;4994854;28;20070;-61
2022/12/26 14:39:49;;;;;;;20.73;3.50;;;6.30;99.90;;;;;;5012195;28;20042;-60
2022/12/26 14:45:31;;;;;;;15.77;2.88;;;6.20;99.90;;;;;;5010255;28;20116;-60
2022/12/26 14:47:58;;;;;;;10.05;1.42;;;6.20;99.90;;;;;;5013423;28;20495;-60
2022/12/26 14:50:39;;;;;;;19.48;2.85;;;6.10;99.90;;;;;;5025257;28;20128;-60
2022/12/26 14:53:20;;;;;;;19.13;2.72;;;6.10;99.90;;;;;;5000332;28;20077;-60
2022/12/26 14:55:53;;;;;;;18.52;3.40;;;6.10;99.90;;;;;;5005921;28;20929;-60
2022/12/26 14:58:31;;;;;;;17.35;3.15;;;6.10;99.90;;;;;;5007811;28;20091;-60
2022/12/26 15:01:08;;;;;;;23.85;3.20;;;6.00;99.90;;;;;;5025575;28;20037;-61
2022/12/26 15:04:13;;;;;;;19.13;2.75;;;6.00;99.90;;;;;;5025044;28;20057;-60
2022/12/26 15:07:02;;;;;;;23.13;3.75;;;6.00;99.90;;;;;;4935364;29;20471;-60
2022/12/26 15:09:34;;;;;;;4.43;1.33;;;5.90;99.90;;;;;;5022278;28;20104;-60
2022/12/26 15:12:24;;;;;;;11.73;2.38;;;5.90;99.90;;;;;;5025871;28;20091;-61
2022/12/26 15:15:12;;;;;;;10.20;1.27;;;5.90;99.90;;;;;;5024444;28;20056;-60
2022/12/26 15:17:41;;;;;;;9.20;1.70;;;5.80;99.90;;;;;;5007325;28;20045;-60
2022/12/26 15:20:25;;;;;;;19.42;2.90;;;5.80;99.90;;;;;;5025290;28;20037;-60
2022/12/26 15:23:07;;;;;;;24.75;2.85;;;5.70;99.90;;;;;;5024528;28;20045;-60
2022/12/26 15:25:58;;;;;;;15.05;1.92;;;5.60;99.90;;;;;;5022995;28;20484;-60
2022/12/26 15:28:42;;;;;;;20.77;2.42;;;5.60;99.90;;;;;;5013748;28;20037;-61
2022/12/26 15:31:26;;;;;;;20.75;2.15;;;5.60;99.90;;;;;;5024308;28;20102;-60
2022/12/26 15:34:10;;;;;;;19.55;2.20;;;5.60;99.90;;;;;;5015228;28;20064;-60